Hauptseite
METAR-TAF:

METAR-TAF

Flughäfen :

Militärflugplatz Châteaudun

Châteaudun, Frankreich

Breite: 48-03N, Länge: 001-23E, Höhe: 134 m

Beobachtung

Neuester Wetterbericht von vor 32 Minuten, um 13:00 UTC
Wind 13 kt aus Süd/Südost, Böen bis zu 27 kt, variierte zwischen Ost/Südost und Süd
Temperatur 24°C
Luftfeuchtigkeit 41%
Luftdruck 1010 hPa
Sichtweite 10 km oder mehr
keine Wolken unter 1500 m und keine Kumulonimbus oder Gewitterwolken

METAR: LFOC 151300Z AUTO 15013G27KT 120V190 CAVOK 24/10 Q1010 NOSIG

Zeit: 15:32 (13:32 UTC)

Prognose

Neuester Wetterbericht von vor 5 Stunden und 32 Minuten, um 08:00 UTC
Gültige Prognose vom 15 um 09 UTC bis 16 um 09 UTC
Wind 8 kt aus Süd/Südost
Sichtweite 10 km oder mehr
keine Wolken unter 1500 m und keine Kumulonimbus oder Gewitterwolken

TAF: LFOC 150800Z 1509/1609 15008KT CAVOK

Wetterbeobachtungen und Prognosen von mehr als 4000 Flughäfen (METAR und TAF Bericht).

Die verfügbaren Stationen werden durch gelbe und rote Markierungen auf der Karte dargestellt.

Führen Sie die Maus auf sie, um den Namen der Station zu sehen.

Darauf klicken, um die Beobachtung von Wetterbeobachtungen und Prognosen zu sehen.

Um die Karte zu ändern : klicken Sie auf den grünen Tasten mit einem schwarzen Kreuz Zum Vergrößern, auf den grünen Button mit einem Gedankenstrich zu verkleinern, oder auf die grünen Pfeile für benachbarte Karten.


METAR-TAF: